Time;durP1;ratioP1;P1;durP2;ratioP2;P2;SDS_P1;SDS_P2;PMS_P1;PMS_P2;Temp;Humidity;BMP_temperature;BMP_pressure;BME280_temperature;BME280_humidity;BME280_pressure;Samples;Min_cycle;Max_cycle;Signal;HPM_P1;HPM_P2
2022/02/21 00:02:24;;;;;;;9.80;2.53;;;9.80;99.90;;;;;;4968133;28;20030;-84
2022/02/21 00:04:50;;;;;;;5.47;1.70;;;9.80;99.90;;;;;;4964326;28;20042;-86
2022/02/21 00:07:16;;;;;;;9.15;2.35;;;9.80;99.90;;;;;;4961803;28;20022;-80
2022/02/21 00:09:42;;;;;;;8.32;1.92;;;9.80;99.90;;;;;;4966946;28;20290;-83
2022/02/21 00:12:09;;;;;;;4.68;1.48;;;9.90;99.90;;;;;;4967851;28;20495;-84
2022/02/21 00:14:37;;;;;;;12.35;2.83;;;9.80;99.90;;;;;;4960826;28;20046;-79
2022/02/21 00:17:03;;;;;;;8.88;1.85;;;9.80;99.90;;;;;;4984995;28;20023;-83
2022/02/21 00:19:29;;;;;;;6.45;1.77;;;9.80;99.90;;;;;;4958461;28;20049;-81
2022/02/21 00:21:54;;;;;;;6.95;1.77;;;9.90;99.90;;;;;;4973527;28;20105;-84
2022/02/21 00:24:21;;;;;;;10.20;2.47;;;9.90;99.90;;;;;;4954152;28;20034;-83
2022/02/21 00:26:47;;;;;;;7.65;2.15;;;9.90;99.90;;;;;;4957023;28;20018;-82
2022/02/21 00:29:13;;;;;;;6.05;1.90;;;;;;;;;;4975304;28;20030;-81
2022/02/21 00:31:38;;;;;;;6.50;1.88;;;9.90;99.90;;;;;;4967737;28;20035;-83
2022/02/21 00:34:04;;;;;;;9.68;2.00;;;9.80;99.90;;;;;;4974283;28;20026;-82
2022/02/21 00:36:31;;;;;;;10.60;1.83;;;10.70;99.90;;;;;;4975048;28;20038;-81
2022/02/21 00:38:58;;;;;;;3.38;0.82;;;9.80;99.90;;;;;;4973657;28;20062;-83
2022/02/21 00:41:27;;;;;;;6.97;1.75;;;13.30;99.90;;;;;;4971778;28;20029;-82
2022/02/21 00:43:53;;;;;;;8.98;3.20;;;10.10;99.90;;;;;;4978013;28;20057;-80
2022/02/21 00:46:19;;;;;;;9.10;1.80;;;10.00;99.90;;;;;;4971227;28;21699;-86
2022/02/21 00:48:45;;;;;;;10.73;2.20;;;10.10;99.90;;;;;;4977144;28;20022;-81
2022/02/21 00:51:10;;;;;;;5.35;1.08;;;10.10;99.90;;;;;;4976453;28;20390;-82
2022/02/21 00:53:36;;;;;;;5.72;1.27;;;10.30;99.90;;;;;;4978251;28;20026;-86
2022/02/21 00:56:02;;;;;;;8.05;1.77;;;10.20;99.90;;;;;;4975529;28;20030;-83
2022/02/21 00:58:28;;;;;;;9.70;1.55;;;10.20;99.90;;;;;;4977656;28;20034;-82
2022/02/21 01:00:54;;;;;;;5.40;1.55;;;10.00;99.90;;;;;;4973807;28;20073;-85
2022/02/21 01:03:20;;;;;;;6.05;1.33;;;10.20;99.90;;;;;;4972096;28;20479;-81
2022/02/21 01:05:46;;;;;;;7.97;1.90;;;10.10;99.90;;;;;;4973894;28;20035;-84
2022/02/21 01:08:12;;;;;;;6.50;1.58;;;12.00;99.90;;;;;;4977366;28;20030;-87
2022/02/21 01:10:38;;;;;;;5.47;1.60;;;9.90;99.90;;;;;;4977303;28;20034;-83
2022/02/21 01:13:05;;;;;;;7.85;1.67;;;9.90;99.90;;;;;;4978011;28;20031;-82
2022/02/21 01:15:31;;;;;;;6.53;1.80;;;9.80;99.90;;;;;;4986190;28;20073;-82
2022/02/21 01:17:58;;;;;;;4.85;1.35;;;9.80;99.90;;;;;;4974618;28;20478;-86
2022/02/21 01:20:24;;;;;;;4.25;1.33;;;9.80;99.90;;;;;;4973753;28;20779;-86
2022/02/21 01:22:50;;;;;;;12.02;2.38;;;9.90;99.90;;;;;;4976667;28;20030;-84
2022/02/21 01:25:18;;;;;;;10.23;2.00;;;10.00;99.90;;;;;;4976153;28;20161;-83
2022/02/21 01:27:44;;;;;;;4.88;1.23;;;10.00;99.90;;;;;;4983400;28;20030;-86
2022/02/21 01:30:12;;;;;;;8.63;1.50;;;9.40;99.90;;;;;;4983253;28;20094;-83
2022/02/21 01:32:40;;;;;;;8.80;1.63;;;8.60;99.90;;;;;;4977847;28;20026;-81
2022/02/21 01:35:08;;;;;;;9.35;1.67;;;7.80;99.90;;;;;;4977352;28;20030;-82
2022/02/21 01:37:34;;;;;;;11.80;2.40;;;7.50;99.90;;;;;;4973607;28;20037;-84
2022/02/21 01:40:01;;;;;;;7.55;1.60;;;7.20;99.90;;;;;;4972460;28;20592;-80
2022/02/21 01:42:27;;;;;;;10.85;2.00;;;7.00;99.90;;;;;;4960462;28;20045;-84
2022/02/21 01:44:54;;;;;;;11.32;2.33;;;6.90;99.90;;;;;;4970601;28;20463;-82
2022/02/21 01:47:23;;;;;;;14.38;2.50;;;6.70;99.90;;;;;;4973652;28;20053;-82
2022/02/21 01:49:49;;;;;;;16.33;2.33;;;6.70;99.90;;;;;;4973198;28;20050;-81
2022/02/21 01:52:17;;;;;;;14.80;3.17;;;6.70;99.90;;;;;;4976372;28;20495;-82
2022/02/21 01:54:44;;;;;;;16.30;2.92;;;6.60;99.90;;;;;;4972790;28;20129;-81
2022/02/21 01:57:11;;;;;;;14.43;2.70;;;6.60;99.90;;;;;;4972667;28;20039;-83
2022/02/21 01:59:38;;;;;;;14.63;1.98;;;6.70;99.90;;;;;;4971525;28;20089;-84
2022/02/21 02:02:08;;;;;;;8.77;2.47;;;6.80;99.90;;;;;;4972145;28;20126;-86
2022/02/21 02:04:34;;;;;;;12.20;2.50;;;;;;;;;;4951402;28;20034;-84
2022/02/21 02:07:04;;;;;;;13.35;3.03;;;6.80;99.90;;;;;;4977226;28;20089;-81
2022/02/21 02:09:32;;;;;;;13.52;2.83;;;7.00;99.90;;;;;;4974267;28;20027;-80
2022/02/21 02:11:59;;;;;;;13.68;3.05;;;7.00;99.90;;;;;;4964688;28;20505;-81
2022/02/21 02:14:33;;;;;;;13.38;2.38;;;7.00;99.90;;;;;;4974852;28;20125;-82
2022/02/21 02:17:14;;;;;;;12.68;2.47;;;6.90;99.90;;;;;;4978566;28;20098;-79
2022/02/21 02:19:41;;;;;;;;;;;6.90;99.90;;;;;;4972977;28;20053;-81
2022/02/21 02:22:13;;;;;;;16.13;3.17;;;9.50;99.90;;;;;;4972395;28;19932;-81
2022/02/21 02:24:43;;;;;;;12.35;2.42;;;7.00;99.90;;;;;;4980373;28;20036;-81
2022/02/21 02:27:12;;;;;;;12.20;3.58;;;7.00;99.90;;;;;;4981195;28;20030;-83
2022/02/21 02:29:44;;;;;;;12.23;2.33;;;7.00;99.90;;;;;;4981741;28;20229;-83
2022/02/21 02:32:13;;;;;;;12.20;1.98;;;7.00;99.90;;;;;;4990698;28;20058;-85
2022/02/21 02:34:47;;;;;;;10.75;2.17;;;8.50;99.90;;;;;;4967619;28;20137;-82
2022/02/21 02:37:14;;;;;;;11.38;2.70;;;7.10;99.90;;;;;;4981997;28;20526;-81
2022/02/21 02:39:43;;;;;;;11.68;1.60;;;7.10;99.90;;;;;;4974133;28;20038;-82
2022/02/21 02:42:11;;;;;;;8.55;1.52;;;7.20;99.90;;;;;;4985354;28;20667;-85
2022/02/21 02:44:43;;;;;;;6.95;1.67;;;7.20;99.90;;;;;;4983873;28;20046;-82
2022/02/21 02:47:12;;;;;;;6.97;1.65;;;7.20;99.90;;;;;;5003421;28;20035;-83
2022/02/21 02:49:44;;;;;;;7.07;1.75;;;7.20;99.90;;;;;;4991890;28;20092;-84
2022/02/21 02:52:12;;;;;;;5.28;1.65;;;7.20;99.90;;;;;;4974022;28;20039;-84
2022/02/21 02:54:39;;;;;;;8.82;1.50;;;7.20;99.90;;;;;;4979544;28;20043;-82
2022/02/21 02:57:06;;;;;;;8.82;2.22;;;7.30;99.90;;;;;;4976073;28;20033;-84
2022/02/21 02:59:32;;;;;;;7.40;1.60;;;7.30;99.90;;;;;;4979995;28;20609;-83
2022/02/21 03:01:57;;;;;;;9.25;1.75;;;7.40;99.90;;;;;;4982292;28;20038;-81
2022/02/21 03:04:24;;;;;;;12.80;2.00;;;7.40;99.90;;;;;;4980765;28;20030;-84
2022/02/21 03:06:51;;;;;;;11.05;1.80;;;7.40;99.90;;;;;;4982392;28;20026;-84
2022/02/21 03:09:17;;;;;;;10.20;2.13;;;7.40;99.90;;;;;;4984932;28;20022;-81
2022/02/21 03:11:43;;;;;;;6.45;2.03;;;7.40;99.90;;;;;;4986671;28;20027;-85
2022/02/21 03:14:10;;;;;;;7.97;1.88;;;7.80;99.90;;;;;;4987839;28;20031;-83
2022/02/21 03:16:38;;;;;;;8.70;2.00;;;7.60;99.90;;;;;;4991626;28;20089;-82
2022/02/21 03:19:05;;;;;;;8.70;2.20;;;7.50;99.90;;;;;;5001041;28;20030;-87
2022/02/21 03:21:31;;;;;;;7.28;1.55;;;7.50;99.90;;;;;;4992370;28;20757;-86
2022/02/21 03:23:56;;;;;;;8.55;2.30;;;;;;;;;;4988530;28;23057;-84
2022/02/21 03:26:22;;;;;;;8.30;2.10;;;7.40;99.90;;;;;;4985076;28;20039;-83
2022/02/21 03:28:48;;;;;;;9.32;1.70;;;7.40;99.90;;;;;;4984641;28;20034;-84
2022/02/21 03:31:14;;;;;;;6.25;1.58;;;7.30;99.90;;;;;;4983204;28;20031;-83
2022/02/21 03:33:39;;;;;;;9.07;2.10;;;7.50;99.90;;;;;;4984497;28;20417;-86
2022/02/21 03:36:06;;;;;;;12.82;2.35;;;7.50;99.90;;;;;;4987143;28;20026;-84
2022/02/21 03:38:31;;;;;;;12.60;3.00;;;7.40;99.90;;;;;;4990876;28;20751;-83
2022/02/21 03:40:57;;;;;;;10.55;1.98;;;7.90;99.90;;;;;;4988930;28;20042;-85
2022/02/21 03:43:23;;;;;;;10.18;2.10;;;7.50;99.90;;;;;;4993290;28;20054;-81
2022/02/21 03:45:49;;;;;;;7.07;1.50;;;7.40;99.90;;;;;;4990197;28;20432;-84
2022/02/21 03:48:16;;;;;;;9.23;1.88;;;7.30;99.90;;;;;;4983056;28;20109;-86
2022/02/21 03:50:42;;;;;;;9.85;2.38;;;7.30;99.90;;;;;;4980811;28;20111;-87
2022/02/21 03:53:08;;;;;;;7.95;1.85;;;7.40;99.90;;;;;;4985243;28;20034;-88
2022/02/21 03:55:33;;;;;;;11.48;1.85;;;5.40;99.90;;;;;;4981070;28;20030;-82
2022/02/21 03:57:59;;;;;;;10.00;1.95;;;8.70;99.90;;;;;;4998340;28;20051;-85
2022/02/21 04:00:25;;;;;;;9.88;2.10;;;7.40;99.90;;;;;;4986375;28;20046;-85
2022/02/21 04:02:52;;;;;;;9.45;1.70;;;7.50;99.90;;;;;;4984304;28;20063;-84
2022/02/21 04:05:18;;;;;;;10.95;1.85;;;7.30;99.90;;;;;;4989892;28;20026;-82
2022/02/21 04:07:44;;;;;;;10.35;1.77;;;9.10;99.90;;;;;;4986938;28;20455;-85
2022/02/21 04:10:13;;;;;;;10.27;2.30;;;7.20;99.90;;;;;;4985839;28;20065;-85
2022/02/21 04:12:39;;;;;;;5.32;1.45;;;7.40;99.90;;;;;;5004009;28;20042;-84
2022/02/21 04:15:06;;;;;;;9.75;2.13;;;7.10;99.90;;;;;;4986363;28;20407;-83
2022/02/21 04:17:50;;;;;;;11.10;3.65;;;7.10;99.90;;;;;;4983726;28;20023;-83
2022/02/21 04:20:19;;;;;;;5.65;1.67;;;7.00;99.90;;;;;;4986850;28;20022;-83
2022/02/21 04:22:45;;;;;;;13.50;2.15;;;9.20;99.90;;;;;;4987194;28;20027;-83
2022/02/21 04:25:12;;;;;;;12.65;2.47;;;7.00;99.90;;;;;;4988979;28;20041;-81
2022/02/21 04:27:39;;;;;;;11.90;2.47;;;7.00;99.90;;;;;;4982614;28;20412;-85
2022/02/21 04:30:05;;;;;;;16.42;2.25;;;8.20;99.90;;;;;;4981788;28;20694;-83
2022/02/21 04:32:31;;;;;;;17.63;3.13;;;7.00;99.90;;;;;;4981655;28;20031;-86
2022/02/21 04:34:57;;;;;;;8.15;2.15;;;;;;;;;;4986747;28;20036;-82
2022/02/21 04:37:23;;;;;;;9.98;2.70;;;7.10;99.90;;;;;;4992608;28;20026;-86
2022/02/21 04:39:49;;;;;;;8.98;2.67;;;8.90;99.90;;;;;;4987472;28;20030;-85
2022/02/21 04:42:15;;;;;;;12.00;2.28;;;;;;;;;;4989601;28;20038;-83
2022/02/21 04:44:40;;;;;;;16.73;2.75;;;7.00;99.90;;;;;;4993275;28;20498;-84
2022/02/21 04:47:06;;;;;;;9.07;1.83;;;6.90;99.90;;;;;;4988872;28;20050;-84
2022/02/21 04:49:32;;;;;;;9.82;2.28;;;7.00;99.90;;;;;;4989268;28;20026;-82
2022/02/21 04:51:58;;;;;;;15.43;3.20;;;6.90;99.90;;;;;;4989912;28;20401;-81
2022/02/21 04:54:24;;;;;;;11.57;3.13;;;6.80;99.90;;;;;;4989429;28;20121;-83
2022/02/21 04:56:50;;;;;;;13.57;3.17;;;6.80;99.90;;;;;;4984488;28;20130;-83
2022/02/21 04:59:15;;;;;;;15.38;3.20;;;8.90;99.90;;;;;;4981319;28;20037;-82
2022/02/21 05:01:41;;;;;;;10.98;2.70;;;6.70;99.90;;;;;;4981656;28;20037;-85
2022/02/21 05:04:07;;;;;;;20.10;2.88;;;;;;;;;;4983912;28;20034;-83
2022/02/21 05:06:32;;;;;;;11.82;2.65;;;6.60;99.90;;;;;;4983450;28;20107;-82
2022/02/21 05:08:58;;;;;;;11.40;2.10;;;7.60;99.90;;;;;;4986706;28;20498;-84
2022/02/21 05:11:24;;;;;;;17.85;3.50;;;6.60;99.90;;;;;;4983290;28;20033;-84
2022/02/21 05:13:50;;;;;;;14.32;2.25;;;6.60;99.90;;;;;;4981900;28;20447;-84
2022/02/21 05:16:15;;;;;;;14.68;2.45;;;6.60;99.90;;;;;;4989307;28;20502;-83
2022/02/21 05:18:41;;;;;;;15.07;2.20;;;6.70;99.90;;;;;;4987907;28;20035;-83
2022/02/21 05:21:07;;;;;;;15.73;2.55;;;6.70;99.90;;;;;;4988460;28;20053;-84
2022/02/21 05:23:33;;;;;;;16.33;3.20;;;6.60;99.90;;;;;;4982738;28;20030;-84
2022/02/21 05:25:58;;;;;;;13.60;3.10;;;8.80;99.90;;;;;;4984555;28;20041;-85
2022/02/21 05:28:24;;;;;;;17.73;3.22;;;;;;;;;;4982695;28;20034;-85
2022/02/21 05:30:50;;;;;;;17.90;3.67;;;6.50;99.90;;;;;;4984403;28;20215;-84
2022/02/21 05:33:16;;;;;;;14.13;2.95;;;6.40;99.90;;;;;;4989078;28;20050;-83
2022/02/21 05:35:42;;;;;;;16.40;2.70;;;6.30;99.90;;;;;;4989194;28;20035;-86
2022/02/21 05:38:07;;;;;;;12.55;1.95;;;6.30;99.90;;;;;;4993294;28;20031;-83
2022/02/21 05:40:33;;;;;;;14.77;3.15;;;6.30;99.90;;;;;;4986852;28;20045;-84
2022/02/21 05:42:59;;;;;;;8.77;2.08;;;6.20;99.90;;;;;;4983283;28;20085;-85
2022/02/21 05:45:24;;;;;;;14.57;2.10;;;6.20;99.90;;;;;;4981326;28;20035;-82
2022/02/21 05:47:50;;;;;;;11.02;2.20;;;6.20;99.90;;;;;;4987658;28;20034;-81
2022/02/21 05:50:16;;;;;;;15.40;3.17;;;6.10;99.90;;;;;;4985216;28;20041;-83
2022/02/21 05:52:41;;;;;;;19.63;2.05;;;6.10;99.90;;;;;;4983232;28;20065;-81
2022/02/21 05:55:07;;;;;;;12.60;2.60;;;6.20;99.90;;;;;;4986152;28;20026;-80
2022/02/21 05:57:34;;;;;;;10.40;2.63;;;6.30;99.90;;;;;;4984940;28;20063;-85
2022/02/21 06:00:02;;;;;;;16.27;2.80;;;6.20;99.90;;;;;;4984376;28;20055;-83
2022/02/21 06:02:27;;;;;;;15.93;2.67;;;6.10;99.90;;;;;;4986703;28;20026;-86
2022/02/21 06:04:54;;;;;;;12.98;2.33;;;6.00;99.90;;;;;;4990664;28;20041;-85
2022/02/21 06:07:20;;;;;;;13.45;2.35;;;6.10;99.90;;;;;;4991827;28;20447;-85
2022/02/21 06:09:45;;;;;;;11.18;2.90;;;6.00;99.90;;;;;;4988145;28;20034;-86
2022/02/21 06:12:12;;;;;;;9.52;2.58;;;6.10;99.90;;;;;;4990481;28;20152;-83
2022/02/21 06:14:38;;;;;;;15.48;2.42;;;6.00;99.90;;;;;;4993399;28;20045;-87
2022/02/21 06:17:04;;;;;;;13.63;3.45;;;6.00;99.90;;;;;;4989980;28;20027;-87
2022/02/21 06:19:30;;;;;;;17.77;3.30;;;6.20;99.90;;;;;;4988685;28;20042;-85
2022/02/21 06:21:57;;;;;;;17.58;2.80;;;6.20;99.90;;;;;;4986086;28;20026;-88
2022/02/21 06:24:24;;;;;;;10.85;2.17;;;7.10;99.90;;;;;;4985728;28;20144;-84
2022/02/21 06:26:50;;;;;;;13.70;2.97;;;6.00;99.90;;;;;;4987510;28;20030;-85
2022/02/21 06:29:16;;;;;;;11.98;2.25;;;6.30;99.90;;;;;;4990596;28;20042;-85
2022/02/21 06:31:42;;;;;;;14.68;2.95;;;5.90;99.90;;;;;;4986022;28;20121;-84
2022/02/21 06:34:07;;;;;;;7.07;2.45;;;6.00;99.90;;;;;;4986548;28;20035;-84
2022/02/21 06:36:36;;;;;;;13.50;2.47;;;8.40;99.90;;;;;;4987076;28;20037;-85
2022/02/21 06:39:03;;;;;;;15.75;3.13;;;5.90;99.90;;;;;;4987862;28;20041;-83
2022/02/21 06:41:29;;;;;;;19.55;3.30;;;6.50;99.90;;;;;;4989300;28;20042;-86
2022/02/21 06:43:54;;;;;;;8.82;2.50;;;6.10;99.90;;;;;;4990889;28;20054;-87
2022/02/21 06:46:20;;;;;;;14.38;3.92;;;6.10;99.90;;;;;;4989748;28;20035;-83
2022/02/21 06:48:46;;;;;;;9.98;2.25;;;6.40;99.90;;;;;;5005215;28;20026;-84
2022/02/21 06:51:12;;;;;;;11.80;2.22;;;6.20;99.90;;;;;;4985990;28;20101;-82
2022/02/21 06:53:38;;;;;;;16.98;2.72;;;7.60;99.90;;;;;;5000292;28;20034;-85
2022/02/21 06:56:04;;;;;;;15.43;3.05;;;6.20;99.90;;;;;;5000463;28;20041;-87
2022/02/21 06:58:29;;;;;;;11.90;2.15;;;6.80;99.90;;;;;;5004811;28;20034;-86
2022/02/21 07:00:55;;;;;;;14.13;2.22;;;6.20;99.90;;;;;;5003776;28;20037;-81
2022/02/21 07:03:21;;;;;;;16.60;3.10;;;6.20;99.90;;;;;;5002471;28;20041;-83
2022/02/21 07:05:47;;;;;;;12.15;1.92;;;6.90;99.90;;;;;;5001694;28;20137;-83
2022/02/21 07:08:12;;;;;;;19.10;3.67;;;6.30;99.90;;;;;;5003120;28;20060;-82
2022/02/21 07:10:38;;;;;;;7.13;1.95;;;6.30;99.90;;;;;;5004498;28;20047;-87
2022/02/21 07:13:04;;;;;;;8.98;2.45;;;6.30;99.90;;;;;;5003453;28;20106;-88
2022/02/21 07:15:32;;;;;;;15.32;2.55;;;6.40;99.90;;;;;;5002872;28;20045;-86
2022/02/21 07:17:58;;;;;;;13.98;2.65;;;6.50;99.90;;;;;;5003725;28;20019;-85
2022/02/21 07:20:25;;;;;;;12.07;2.25;;;8.00;99.90;;;;;;5005070;28;20018;-85
2022/02/21 07:22:51;;;;;;;20.38;3.75;;;6.50;99.90;;;;;;5006421;28;20017;-84
2022/02/21 07:25:17;;;;;;;12.85;2.03;;;6.30;99.90;;;;;;5005556;28;20090;-83
2022/02/21 07:27:51;;;;;;;7.45;1.70;;;6.40;99.90;;;;;;5003547;28;20053;-87
2022/02/21 07:30:23;;;;;;;8.13;1.95;;;6.50;99.90;;;;;;5002476;28;20034;-84
2022/02/21 07:32:49;;;;;;;13.48;2.35;;;7.20;99.90;;;;;;5000020;28;20037;-85
2022/02/21 07:35:15;;;;;;;15.93;2.60;;;6.50;99.90;;;;;;5001149;28;20011;-82
2022/02/21 07:37:41;;;;;;;13.50;1.85;;;9.50;99.90;;;;;;5019651;28;20045;-86
2022/02/21 07:40:11;;;;;;;2.85;1.15;;;7.30;99.90;;;;;;5002112;28;20034;-87
2022/02/21 07:42:39;;;;;;;11.30;2.13;;;6.50;99.90;;;;;;5003392;28;20026;-83
2022/02/21 07:45:06;;;;;;;4.82;1.40;;;6.50;99.90;;;;;;5003099;28;20039;-85
2022/02/21 07:47:32;;;;;;;8.57;1.67;;;6.50;99.90;;;;;;5001589;28;20030;-84
2022/02/21 07:49:57;;;;;;;4.85;1.20;;;6.40;99.90;;;;;;5001532;28;20023;-85
2022/02/21 07:52:26;;;;;;;8.15;1.35;;;9.30;99.90;;;;;;4992973;28;20050;-80
2022/02/21 07:54:52;;;;;;;4.35;0.90;;;6.30;99.90;;;;;;4978359;28;20042;-81
2022/02/21 07:57:17;;;;;;;2.20;0.90;;;6.40;99.90;;;;;;4979666;28;20026;-80
2022/02/21 07:59:43;;;;;;;9.07;1.10;;;6.40;99.90;;;;;;4979700;28;20037;-80
2022/02/21 08:02:09;;;;;;;4.63;0.90;;;6.40;99.90;;;;;;4979278;28;20589;-81
2022/02/21 08:04:35;;;;;;;2.70;0.80;;;6.30;99.90;;;;;;4979002;28;20054;-84
2022/02/21 08:07:00;;;;;;;3.58;0.80;;;6.10;99.90;;;;;;4972999;28;20372;-79
2022/02/21 08:09:26;;;;;;;1.20;0.73;;;6.10;99.90;;;;;;4971227;28;20066;-81
2022/02/21 08:11:52;;;;;;;2.05;0.68;;;5.90;99.90;;;;;;4971172;28;20547;-80
2022/02/21 08:14:17;;;;;;;0.75;0.60;;;5.80;99.90;;;;;;4972457;28;20038;-80
2022/02/21 08:16:43;;;;;;;1.25;0.50;;;5.80;99.90;;;;;;4977595;28;20105;-81
2022/02/21 08:19:10;;;;;;;2.35;0.50;;;5.60;99.90;;;;;;4972825;28;20034;-81
2022/02/21 08:21:37;;;;;;;2.15;0.68;;;5.60;99.90;;;;;;4975068;28;20419;-82
2022/02/21 08:24:04;;;;;;;3.03;0.70;;;4.80;99.90;;;;;;4978221;28;20027;-81
2022/02/21 08:26:30;;;;;;;3.55;0.93;;;5.40;99.90;;;;;;4982861;28;20033;-80
2022/02/21 08:28:56;;;;;;;2.45;1.10;;;7.10;99.90;;;;;;4979656;28;20050;-83
2022/02/21 08:31:22;;;;;;;6.32;1.08;;;5.50;99.90;;;;;;4982617;28;20026;-83
2022/02/21 08:33:48;;;;;;;4.63;1.08;;;5.60;99.90;;;;;;4978339;28;20117;-80
2022/02/21 08:36:13;;;;;;;4.60;1.00;;;5.60;99.90;;;;;;4979814;28;20106;-80
2022/02/21 08:38:39;;;;;;;4.78;1.20;;;5.70;99.90;;;;;;4979828;28;20061;-80
2022/02/21 08:41:05;;;;;;;3.90;1.15;;;5.70;99.90;;;;;;4980227;28;20146;-79
2022/02/21 08:43:32;;;;;;;3.38;0.95;;;5.80;99.90;;;;;;4979847;28;20034;-80
2022/02/21 08:45:57;;;;;;;5.53;1.67;;;5.90;99.90;;;;;;4975614;28;20026;-81
2022/02/21 08:48:23;;;;;;;5.72;1.35;;;5.90;99.90;;;;;;4978791;28;20992;-82
2022/02/21 08:50:50;;;;;;;5.65;1.23;;;6.00;99.90;;;;;;4980854;28;20617;-82
2022/02/21 08:53:16;;;;;;;10.85;2.40;;;6.90;99.90;;;;;;4975834;28;20383;-80
2022/02/21 08:55:42;;;;;;;8.27;1.80;;;6.70;99.90;;;;;;4976890;28;20049;-82
2022/02/21 08:58:08;;;;;;;9.27;1.55;;;6.20;99.90;;;;;;4976970;28;21511;-82
2022/02/21 09:00:34;;;;;;;4.45;1.02;;;6.20;99.90;;;;;;4978385;28;20275;-79
2022/02/21 09:02:59;;;;;;;10.13;1.85;;;6.30;99.90;;;;;;4979531;28;20138;-81
2022/02/21 09:05:25;;;;;;;7.75;1.35;;;6.40;99.90;;;;;;4977564;28;20169;-83
2022/02/21 09:07:52;;;;;;;6.35;1.13;;;6.50;99.90;;;;;;4979099;28;20411;-81
2022/02/21 09:10:18;;;;;;;7.95;1.83;;;6.60;99.90;;;;;;4982205;28;20383;-82
2022/02/21 09:12:44;;;;;;;7.28;1.80;;;6.60;99.90;;;;;;4990989;28;20487;-81
2022/02/21 09:15:10;;;;;;;8.00;2.20;;;9.40;99.90;;;;;;4987031;28;20034;-81
2022/02/21 09:17:36;;;;;;;9.02;1.27;;;6.70;99.90;;;;;;4982007;28;20034;-83
2022/02/21 09:20:02;;;;;;;12.10;2.22;;;6.70;99.90;;;;;;4983770;28;20041;-82
2022/02/21 09:22:28;;;;;;;8.05;2.22;;;6.80;99.90;;;;;;4983898;28;20037;-82
2022/02/21 09:24:53;;;;;;;10.98;2.53;;;6.80;99.90;;;;;;4981504;28;20101;-80
2022/02/21 09:27:19;;;;;;;8.45;2.10;;;7.10;99.90;;;;;;4984486;28;20026;-80
2022/02/21 09:29:46;;;;;;;9.70;2.03;;;7.10;99.90;;;;;;4988291;28;20026;-80
2022/02/21 09:32:11;;;;;;;6.72;1.40;;;7.10;99.90;;;;;;4984298;28;20027;-78
2022/02/21 09:34:39;;;;;;;8.43;1.73;;;7.20;99.90;;;;;;4986981;28;20053;-80
2022/02/21 09:37:04;;;;;;;11.82;1.80;;;7.20;99.90;;;;;;4987108;28;20053;-81
2022/02/21 09:39:30;;;;;;;9.30;1.75;;;7.20;99.90;;;;;;4989327;28;20030;-80
2022/02/21 09:41:56;;;;;;;12.20;1.88;;;7.30;99.90;;;;;;4983631;28;20106;-81
2022/02/21 09:44:22;;;;;;;9.60;2.35;;;7.40;99.90;;;;;;4986070;28;20027;-79
2022/02/21 09:46:49;;;;;;;5.88;1.23;;;8.30;99.90;;;;;;4989447;28;20030;-79
2022/02/21 09:49:18;;;;;;;9.32;1.80;;;7.80;99.90;;;;;;4986952;28;20117;-83
2022/02/21 09:51:45;;;;;;;5.88;1.48;;;7.80;99.90;;;;;;4985645;28;20086;-82
2022/02/21 09:54:15;;;;;;;8.65;2.00;;;7.80;99.90;;;;;;4991053;28;20022;-81
2022/02/21 09:56:47;;;;;;;13.80;2.67;;;8.00;99.90;;;;;;4988341;28;20746;-82
2022/02/21 09:59:13;;;;;;;8.57;1.63;;;8.30;99.90;;;;;;4991278;28;20092;-83
2022/02/21 10:01:42;;;;;;;9.88;2.38;;;8.10;99.90;;;;;;4992351;28;20093;-81
2022/02/21 10:04:11;;;;;;;9.27;1.58;;;8.00;99.90;;;;;;4997743;28;20052;-85
2022/02/21 10:06:37;;;;;;;5.03;1.60;;;8.10;99.90;;;;;;5007751;28;20133;-82
2022/02/21 10:09:10;;;;;;;8.98;1.98;;;8.10;99.90;;;;;;5003438;28;20022;-84
2022/02/21 10:11:44;;;;;;;8.57;1.63;;;8.20;99.90;;;;;;5013192;28;20057;-82
2022/02/21 10:14:27;;;;;;;11.27;1.60;;;8.20;99.90;;;;;;4994695;28;20049;-81
2022/02/21 10:16:58;;;;;;;9.82;1.75;;;8.20;99.90;;;;;;5003263;28;20027;-81
2022/02/21 10:19:39;;;;;;;10.93;2.13;;;9.80;99.90;;;;;;5003722;28;20551;-82
2022/02/21 10:22:10;;;;;;;9.50;1.70;;;8.60;99.90;;;;;;4992751;28;20023;-83
2022/02/21 10:24:40;;;;;;;8.05;1.50;;;8.60;99.90;;;;;;4989193;28;20026;-80
2022/02/21 10:27:18;;;;;;;7.43;1.67;;;8.40;99.90;;;;;;4994493;28;20034;-83
2022/02/21 10:29:53;;;;;;;9.48;1.65;;;8.50;99.90;;;;;;4989037;28;20084;-81
2022/02/21 10:32:30;;;;;;;9.68;2.08;;;8.40;99.90;;;;;;5008689;28;20084;-84
2022/02/21 10:35:09;;;;;;;6.15;1.75;;;8.50;99.90;;;;;;5004602;28;20038;-83
2022/02/21 10:37:44;;;;;;;11.05;3.65;;;8.30;99.90;;;;;;4988316;28;20034;-81
2022/02/21 10:40:19;;;;;;;10.35;1.88;;;8.40;99.90;;;;;;4988957;28;20026;-83
2022/02/21 10:43:03;;;;;;;11.25;1.73;;;8.40;99.90;;;;;;4990579;28;20026;-84
2022/02/21 10:45:33;;;;;;;9.23;1.63;;;8.50;99.90;;;;;;4994884;28;20090;-80
2022/02/21 10:48:04;;;;;;;3.67;1.15;;;9.70;99.90;;;;;;4991901;28;20026;-82
2022/02/21 10:50:33;;;;;;;13.85;2.85;;;8.40;99.90;;;;;;5002347;28;20090;-83
2022/02/21 10:52:59;;;;;;;6.75;1.30;;;8.30;99.90;;;;;;4998121;28;20039;-81
2022/02/21 10:55:33;;;;;;;8.02;1.98;;;8.20;99.90;;;;;;4981610;28;20084;-83
2022/02/21 10:57:59;;;;;;;8.52;1.30;;;8.00;99.90;;;;;;4985335;28;20034;-83
2022/02/21 11:00:25;;;;;;;8.65;2.10;;;;;;;;;;4990422;28;21760;-82
2022/02/21 11:02:51;;;;;;;8.15;1.83;;;7.80;99.90;;;;;;4987625;28;20521;-83
2022/02/21 11:05:18;;;;;;;19.83;2.85;;;7.70;99.90;;;;;;4988017;28;20034;-81
2022/02/21 11:07:46;;;;;;;10.63;1.88;;;7.60;99.90;;;;;;4990481;28;20098;-81
2022/02/21 11:10:12;;;;;;;10.07;1.92;;;7.60;99.90;;;;;;4987009;28;20029;-83
2022/02/21 11:15:28;;;;;;;6.78;1.45;;;7.60;99.90;;;;;;5085608;22;20049;-82
2022/02/21 11:17:54;;;;;;;7.47;1.55;;;;;;;;;;5055056;28;20089;-81
2022/02/21 11:20:20;;;;;;;10.23;1.85;;;;;;;;;;5043393;28;20021;-79
2022/02/21 11:22:46;;;;;;;6.07;1.83;;;;;;;;;;5049735;28;20491;-80
2022/02/21 11:25:50;;;;;;;11.60;1.65;;;7.80;99.90;;;;;;5050354;28;20116;-80
2022/02/21 11:28:25;;;;;;;10.95;2.10;;;;;;;;;;5032870;28;20033;-80
2022/02/21 11:30:54;;;;;;;8.00;2.08;;;8.00;99.90;;;;;;5052071;28;20061;-81
2022/02/21 11:33:20;;;;;;;7.47;1.33;;;8.00;99.90;;;;;;5052743;28;20013;-79
2022/02/21 11:38:29;;;;;;;6.72;1.65;;;8.00;99.90;;;;;;5316562;22;20052;-79
2022/02/21 11:40:58;;;;;;;9.60;1.70;;;7.90;99.90;;;;;;5042497;28;20041;-76
2022/02/21 11:43:35;;;;;;;6.20;1.67;;;8.00;99.90;;;;;;5016466;28;20084;-78
2022/02/21 11:46:05;;;;;;;10.25;1.95;;;7.70;99.90;;;;;;5013847;28;20025;-82
2022/02/21 11:48:54;;;;;;;10.07;1.73;;;7.70;99.90;;;;;;5017880;28;20034;-81
2022/02/21 11:51:40;;;;;;;9.60;1.92;;;7.70;99.90;;;;;;5017059;28;20007;-80
2022/02/21 11:54:09;;;;;;;10.05;1.52;;;7.60;99.90;;;;;;5021965;28;20013;-82
2022/02/21 11:56:50;;;;;;;6.32;1.30;;;7.60;99.90;;;;;;5017484;28;20040;-81
2022/02/21 11:59:24;;;;;;;9.13;1.60;;;7.70;99.90;;;;;;5018196;28;20037;-77
2022/02/21 12:02:04;;;;;;;7.45;1.40;;;7.70;99.90;;;;;;5010820;28;20045;-80
2022/02/21 12:04:46;;;;;;;7.75;1.80;;;7.80;99.90;;;;;;5006412;28;20034;-77
2022/02/21 12:07:35;;;;;;;10.05;1.90;;;7.80;99.90;;;;;;5014204;28;20049;-80
2022/02/21 12:10:24;;;;;;;10.57;2.15;;;7.80;99.90;;;;;;5020789;28;20041;-78
2022/02/21 12:13:02;;;;;;;11.40;2.47;;;7.90;99.90;;;;;;4995582;28;20105;-78
2022/02/21 12:15:34;;;;;;;10.68;1.88;;;7.80;99.90;;;;;;5017587;28;20049;-78
2022/02/21 12:18:26;;;;;;;6.65;1.83;;;7.90;99.90;;;;;;5012958;28;20022;-78
2022/02/21 12:21:14;;;;;;;10.52;2.30;;;8.10;99.90;;;;;;4998471;28;20090;-78
2022/02/21 12:23:58;;;;;;;6.65;1.52;;;;;;;;;;5001939;28;20035;-79
2022/02/21 12:26:42;;;;;;;5.78;1.25;;;8.10;99.90;;;;;;4999495;28;20493;-78
2022/02/21 12:29:19;;;;;;;10.13;2.00;;;8.20;99.90;;;;;;4999074;28;20045;-78
2022/02/21 12:32:06;;;;;;;11.65;1.98;;;8.20;99.90;;;;;;4997260;28;20105;-78
2022/02/21 12:34:34;;;;;;;14.45;2.30;;;8.20;99.90;;;;;;5013188;28;20044;-80
2022/02/21 12:37:05;;;;;;;9.88;2.38;;;8.50;99.90;;;;;;4994381;28;20041;-78
2022/02/21 12:39:41;;;;;;;6.82;2.05;;;8.60;99.90;;;;;;5000195;28;20345;-78
2022/02/21 12:42:12;;;;;;;13.80;2.28;;;8.70;99.90;;;;;;4993090;28;20091;-79
2022/02/21 12:44:45;;;;;;;10.48;2.42;;;9.00;99.90;;;;;;5015684;28;20110;-78
2022/02/21 12:47:11;;;;;;;12.10;2.30;;;9.00;99.90;;;;;;5001155;28;20026;-79
2022/02/21 12:49:42;;;;;;;5.13;1.80;;;8.90;99.90;;;;;;5008158;28;20049;-79
2022/02/21 12:52:10;;;;;;;10.57;1.67;;;8.90;99.90;;;;;;5004354;28;20125;-78
2022/02/21 12:54:48;;;;;;;8.52;1.98;;;8.80;99.90;;;;;;5003249;28;20033;-79
2022/02/21 12:57:14;;;;;;;10.73;2.60;;;8.70;99.90;;;;;;4996079;28;20037;-79
2022/02/21 12:59:40;;;;;;;16.55;2.50;;;8.70;99.90;;;;;;4995920;28;20049;-79
2022/02/21 13:02:08;;;;;;;11.80;2.40;;;8.70;99.90;;;;;;5009470;28;20029;-78
2022/02/21 13:04:35;;;;;;;12.07;2.58;;;8.70;99.90;;;;;;5013368;28;20072;-79
2022/02/21 13:07:05;;;;;;;8.10;1.48;;;8.60;99.90;;;;;;4995557;28;20045;-78